createdAt,value
2023-05-19T00:00:38.922Z,46.08
2023-05-19T00:01:38.959Z,46.57
2023-05-19T00:02:40.028Z,46.41
2023-05-19T00:03:38.957Z,45.92
2023-05-19T00:04:38.939Z,47.05
2023-05-19T00:05:38.921Z,47.53
2023-05-19T00:06:38.909Z,45.76
2023-05-19T00:07:38.922Z,45.92
2023-05-19T00:08:38.960Z,45.92
2023-05-19T00:09:38.909Z,49.15
2023-05-19T00:10:38.868Z,46.73
2023-05-19T00:11:38.851Z,46.08
2023-05-19T00:12:38.845Z,45.60
2023-05-19T00:13:38.861Z,45.92
2023-05-19T00:14:38.844Z,45.60
2023-05-19T00:15:38.838Z,45.60
2023-05-19T00:16:38.818Z,45.76
2023-05-19T00:17:38.880Z,46.57
2023-05-19T00:18:38.918Z,45.76
2023-05-19T00:19:38.807Z,45.76
2023-05-19T00:20:38.802Z,50.76
2023-05-19T00:21:38.796Z,46.57
2023-05-19T00:22:38.796Z,47.53
2023-05-19T00:23:38.794Z,49.47
2023-05-19T00:24:39.604Z,46.08
2023-05-19T00:25:38.782Z,45.76
2023-05-19T00:26:38.750Z,45.92
2023-05-19T00:27:38.795Z,45.76
2023-05-19T00:28:38.802Z,45.76
2023-05-19T00:29:38.728Z,46.25
2023-05-19T00:30:38.721Z,46.57
2023-05-19T00:31:38.764Z,47.21
2023-05-19T00:32:38.734Z,49.31
2023-05-19T00:33:38.726Z,45.92
2023-05-19T00:34:38.714Z,46.25
2023-05-19T00:35:38.732Z,48.98
2023-05-19T00:36:38.744Z,46.25
2023-05-19T00:37:38.676Z,45.60
2023-05-19T00:38:38.699Z,45.92
2023-05-19T00:39:38.666Z,46.57
2023-05-19T00:40:38.656Z,46.25
2023-05-19T00:41:38.665Z,48.34
2023-05-19T00:42:38.716Z,48.02
2023-05-19T00:43:38.623Z,46.41
2023-05-19T00:44:38.628Z,48.82
2023-05-19T00:45:38.623Z,46.08
2023-05-19T00:46:38.927Z,48.18
2023-05-19T00:47:38.682Z,46.41
2023-05-19T00:48:38.701Z,46.73
2023-05-19T00:49:38.577Z,47.70
2023-05-19T00:50:38.592Z,46.57
2023-05-19T00:51:38.562Z,46.73
2023-05-19T00:52:38.573Z,46.08
2023-05-19T00:53:38.553Z,46.41
2023-05-19T00:54:38.534Z,48.50
2023-05-19T00:55:38.576Z,46.89
2023-05-19T00:56:38.525Z,46.89
2023-05-19T00:57:38.521Z,46.41
2023-05-19T00:58:38.524Z,46.57
2023-05-19T00:59:38.505Z,46.57
2023-05-19T01:00:38.781Z,46.73
2023-05-19T01:01:38.524Z,47.05
2023-05-19T01:02:38.548Z,46.73
2023-05-19T01:03:38.588Z,47.05
2023-05-19T01:04:39.518Z,46.73
2023-05-19T01:05:38.497Z,46.89
2023-05-19T01:06:38.460Z,48.02
2023-05-19T01:07:38.453Z,48.02
2023-05-19T01:08:38.452Z,46.73
2023-05-19T01:09:38.508Z,46.89
2023-05-19T01:10:38.464Z,46.89
2023-05-19T01:11:38.424Z,47.05
2023-05-19T01:12:38.419Z,47.21
2023-05-19T01:13:40.345Z,47.21
2023-05-19T01:14:38.426Z,46.73
2023-05-19T01:15:38.504Z,47.21
2023-05-19T01:16:38.542Z,46.73
2023-05-19T01:17:38.426Z,46.89
2023-05-19T01:18:38.394Z,47.70
2023-05-19T01:19:38.382Z,48.18
2023-05-19T01:20:38.441Z,48.66
2023-05-19T01:21:38.361Z,47.53
2023-05-19T01:22:38.354Z,48.18
2023-05-19T01:23:38.361Z,48.66
2023-05-19T01:24:38.361Z,48.66
2023-05-19T01:25:38.333Z,48.02
2023-05-19T01:26:38.323Z,47.86
2023-05-19T01:27:38.332Z,48.82
2023-05-19T01:28:38.337Z,48.50
2023-05-19T01:29:38.308Z,48.18
2023-05-19T01:30:38.313Z,48.34
2023-05-19T01:31:38.347Z,49.31
2023-05-19T01:32:38.380Z,47.70
2023-05-19T01:33:38.305Z,49.79
2023-05-19T01:34:38.261Z,47.86
2023-05-19T01:35:38.264Z,48.18
2023-05-19T01:36:38.299Z,48.66
2023-05-19T01:37:38.273Z,49.15
2023-05-19T01:38:38.272Z,49.31
2023-05-19T01:39:38.263Z,48.50
2023-05-19T01:40:38.235Z,48.18
2023-05-19T01:41:38.225Z,48.18
2023-05-19T01:42:38.260Z,48.50
2023-05-19T01:43:38.209Z,48.34
2023-05-19T01:44:38.200Z,47.70
2023-05-19T01:45:38.234Z,48.18
2023-05-19T01:46:38.180Z,48.34
2023-05-19T01:47:38.280Z,49.63
2023-05-19T01:48:38.176Z,48.82
2023-05-19T01:49:38.163Z,48.50
2023-05-19T01:50:38.189Z,49.15
2023-05-19T01:51:38.161Z,48.82
2023-05-19T01:52:39.080Z,48.66
2023-05-19T01:53:38.143Z,48.02
2023-05-19T01:54:38.133Z,48.98
2023-05-19T01:55:38.127Z,48.50
2023-05-19T01:56:38.174Z,48.02
2023-05-19T01:57:38.149Z,48.98
2023-05-19T01:58:38.097Z,48.82
2023-05-19T01:59:38.103Z,48.98
2023-05-19T02:00:38.093Z,48.66
2023-05-19T02:01:38.210Z,48.66
2023-05-19T02:02:38.089Z,48.98
2023-05-19T02:03:38.077Z,48.50
2023-05-19T02:04:38.112Z,48.66
2023-05-19T02:05:38.073Z,48.98
2023-05-19T02:06:38.232Z,48.82
2023-05-19T02:07:38.386Z,48.82
2023-05-19T02:08:38.043Z,48.98
2023-05-19T02:09:38.033Z,48.66
2023-05-19T02:10:38.024Z,49.15
2023-05-19T02:11:38.057Z,50.92
2023-05-19T02:12:38.017Z,49.15
2023-05-19T02:13:38.013Z,48.82
2023-05-19T02:14:37.983Z,48.82
2023-05-19T02:15:38.026Z,48.98
2023-05-19T02:16:38.004Z,48.98
2023-05-19T02:17:37.995Z,49.31
2023-05-19T02:18:37.966Z,50.60
2023-05-19T02:19:37.980Z,49.31
2023-05-19T02:20:37.965Z,49.47
2023-05-19T02:21:37.946Z,49.79
2023-05-19T02:22:37.963Z,49.47
2023-05-19T02:23:37.932Z,49.31
2023-05-19T02:24:38.062Z,50.27
2023-05-19T02:25:37.950Z,51.08
2023-05-19T02:26:37.906Z,51.72
2023-05-19T02:27:37.912Z,50.27
2023-05-19T02:28:37.896Z,52.53
2023-05-19T02:29:37.924Z,54.14
2023-05-19T02:30:37.883Z,53.82
2023-05-19T02:31:37.936Z,55.91
2023-05-19T02:32:37.969Z,55.27
2023-05-19T02:33:37.874Z,58.81
2023-05-19T02:34:37.875Z,57.04
2023-05-19T02:35:37.837Z,57.52
2023-05-19T02:36:37.847Z,56.56
2023-05-19T02:37:37.814Z,58.17
2023-05-19T02:38:37.834Z,57.52
2023-05-19T02:39:37.881Z,57.85
2023-05-19T02:40:37.810Z,58.49
2023-05-19T02:41:37.875Z,57.69
2023-05-19T02:42:37.822Z,57.52
2023-05-19T02:43:37.807Z,68.80
2023-05-19T02:44:37.798Z,57.36
2023-05-19T02:45:37.786Z,56.40
2023-05-19T02:46:37.827Z,57.69
2023-05-19T02:47:37.783Z,58.17
2023-05-19T02:48:37.779Z,57.04
2023-05-19T02:49:37.748Z,56.88
2023-05-19T02:50:37.747Z,58.33
2023-05-19T02:51:37.781Z,57.85
2023-05-19T02:52:37.757Z,58.97
2023-05-19T02:53:37.752Z,57.85
2023-05-19T02:54:37.716Z,58.49
2023-05-19T02:55:37.717Z,58.65
2023-05-19T02:56:37.696Z,57.52
2023-05-19T02:57:37.719Z,57.04
2023-05-19T02:58:37.675Z,56.72
2023-05-19T02:59:37.690Z,57.36
2023-05-19T03:00:37.721Z,56.72
2023-05-19T03:01:37.820Z,57.04
2023-05-19T03:02:37.725Z,52.69
2023-05-19T03:03:37.770Z,52.69
2023-05-19T03:04:37.646Z,53.66
2023-05-19T03:05:37.625Z,54.79
2023-05-19T03:06:37.661Z,52.69
2023-05-19T03:07:37.645Z,54.95
2023-05-19T03:08:38.826Z,55.27
2023-05-19T03:09:37.605Z,51.24
2023-05-19T03:10:37.645Z,52.05
2023-05-19T03:11:37.606Z,52.85
2023-05-19T03:12:37.642Z,52.37
2023-05-19T03:13:37.575Z,51.40
2023-05-19T03:14:37.562Z,51.24
2023-05-19T03:15:37.572Z,51.40
2023-05-19T03:16:37.701Z,51.56
2023-05-19T03:17:37.582Z,50.60
2023-05-19T03:18:37.578Z,50.76
2023-05-19T03:19:37.528Z,53.01
2023-05-19T03:20:38.992Z,55.11
2023-05-19T03:21:37.548Z,51.24
2023-05-19T03:22:37.511Z,50.76
2023-05-19T03:23:37.508Z,50.43
2023-05-19T03:24:37.505Z,50.76
2023-05-19T03:25:37.505Z,51.56
2023-05-19T03:26:37.486Z,51.56
2023-05-19T03:27:37.481Z,50.92
2023-05-19T03:28:37.462Z,50.27
2023-05-19T03:29:37.468Z,50.92
2023-05-19T03:30:37.483Z,50.92
2023-05-19T03:31:37.446Z,51.56
2023-05-19T03:32:37.515Z,51.24
2023-05-19T03:33:37.543Z,51.88
2023-05-19T03:34:37.436Z,52.37
2023-05-19T03:35:37.436Z,51.24
2023-05-19T03:36:37.424Z,50.76
2023-05-19T03:37:37.407Z,51.56
2023-05-19T03:38:37.411Z,51.08
2023-05-19T03:39:37.417Z,50.60
2023-05-19T03:40:37.408Z,50.43
2023-05-19T03:41:37.382Z,50.27
2023-05-19T03:42:37.370Z,51.40
2023-05-19T03:43:37.384Z,52.53
2023-05-19T03:44:37.388Z,51.72
2023-05-19T03:45:37.380Z,51.24
2023-05-19T03:46:37.356Z,51.08
2023-05-19T03:47:37.382Z,51.08
2023-05-19T03:48:37.331Z,51.40
2023-05-19T03:49:37.341Z,53.66
2023-05-19T03:50:37.322Z,55.43
2023-05-19T03:51:37.310Z,55.27
2023-05-19T03:52:37.362Z,52.21
2023-05-19T03:53:37.408Z,51.08
2023-05-19T03:54:37.294Z,49.79
2023-05-19T03:55:37.308Z,50.92
2023-05-19T03:56:37.291Z,51.40
2023-05-19T03:57:37.320Z,51.72
2023-05-19T03:58:37.280Z,51.24
2023-05-19T03:59:37.271Z,51.24
2023-05-19T04:00:37.242Z,51.56
2023-05-19T04:01:37.250Z,51.40
2023-05-19T04:02:37.360Z,52.37
2023-05-19T04:03:37.274Z,53.01
2023-05-19T04:04:37.266Z,51.56
2023-05-19T04:05:37.206Z,52.21
2023-05-19T04:06:37.203Z,51.40
2023-05-19T04:07:37.252Z,50.27
2023-05-19T04:08:37.205Z,50.76
2023-05-19T04:09:37.176Z,53.33
2023-05-19T04:10:37.195Z,51.56
2023-05-19T04:11:37.173Z,51.40
2023-05-19T04:12:37.193Z,51.08
2023-05-19T04:13:37.165Z,51.24
2023-05-19T04:14:37.166Z,51.08
2023-05-19T04:15:37.191Z,52.21
2023-05-19T04:16:37.175Z,51.24
2023-05-19T04:17:37.234Z,51.24
2023-05-19T04:18:37.209Z,49.95
2023-05-19T04:19:37.126Z,50.92
2023-05-19T04:20:37.178Z,51.24
2023-05-19T04:21:37.129Z,51.88
2023-05-19T04:22:37.090Z,51.08
2023-05-19T04:23:37.125Z,51.56
2023-05-19T04:24:37.069Z,51.72
2023-05-19T04:25:37.081Z,53.66
2023-05-19T04:26:37.074Z,51.56
2023-05-19T04:27:37.114Z,51.56
2023-05-19T04:28:37.052Z,50.92
2023-05-19T04:29:37.039Z,51.40
2023-05-19T04:30:37.048Z,52.53
2023-05-19T04:31:37.246Z,51.40
2023-05-19T04:32:37.041Z,51.72
2023-05-19T04:33:37.011Z,51.24
2023-05-19T04:34:37.019Z,51.24
2023-05-19T04:35:37.022Z,51.08
2023-05-19T04:36:37.056Z,51.24
2023-05-19T04:37:36.977Z,51.88
2023-05-19T04:38:36.984Z,51.40
2023-05-19T04:39:37.007Z,51.08
2023-05-19T04:40:36.991Z,51.88
2023-05-19T04:41:36.945Z,51.24
2023-05-19T04:42:36.944Z,51.56
2023-05-19T04:43:36.943Z,51.40
2023-05-19T04:44:36.933Z,52.21
2023-05-19T04:45:36.933Z,51.88
2023-05-19T04:46:36.969Z,52.37
2023-05-19T04:47:37.040Z,51.40
2023-05-19T04:48:36.895Z,51.40
2023-05-19T04:49:36.903Z,51.88
2023-05-19T04:50:37.929Z,51.88
2023-05-19T04:51:36.896Z,51.72
2023-05-19T04:52:36.905Z,50.92
2023-05-19T04:53:36.875Z,51.40
2023-05-19T04:54:36.883Z,50.92
2023-05-19T04:55:36.848Z,50.60
2023-05-19T04:56:36.856Z,52.69
2023-05-19T04:57:36.837Z,52.69
2023-05-19T04:58:36.882Z,52.05
2023-05-19T04:59:36.852Z,52.37
2023-05-19T05:00:36.817Z,51.24
2023-05-19T05:01:36.829Z,51.56
2023-05-19T05:02:36.937Z,51.08
2023-05-19T05:03:36.895Z,51.88
2023-05-19T05:04:36.806Z,51.88
2023-05-19T05:05:36.804Z,50.60
2023-05-19T05:06:36.774Z,50.76
2023-05-19T05:07:36.751Z,51.56
2023-05-19T05:08:36.781Z,51.40
2023-05-19T05:09:36.740Z,50.76
2023-05-19T05:10:36.743Z,51.40
2023-05-19T05:11:36.731Z,51.40
2023-05-19T05:12:36.739Z,50.60
2023-05-19T05:13:36.729Z,50.92
2023-05-19T05:14:36.710Z,50.92
2023-05-19T05:15:36.690Z,51.24
2023-05-19T05:16:36.698Z,51.40
2023-05-19T05:17:36.749Z,52.21
2023-05-19T05:18:36.735Z,51.24
2023-05-19T05:19:36.682Z,50.43
2023-05-19T05:20:36.683Z,51.08
2023-05-19T05:21:36.663Z,50.60
2023-05-19T05:22:36.691Z,58.49
2023-05-19T05:23:37.630Z,51.88
2023-05-19T05:24:36.658Z,49.47
2023-05-19T05:25:36.622Z,50.27
2023-05-19T05:26:36.612Z,48.98
2023-05-19T05:27:36.683Z,50.60
2023-05-19T05:28:36.601Z,50.27
2023-05-19T05:29:36.591Z,52.37
2023-05-19T05:30:36.633Z,49.15
2023-05-19T05:31:36.635Z,50.11
2023-05-19T05:32:36.793Z,50.11
2023-05-19T05:33:36.611Z,50.92
2023-05-19T05:34:36.823Z,55.75
2023-05-19T05:35:36.546Z,55.27
2023-05-19T05:36:36.579Z,64.78
2023-05-19T05:37:36.546Z,75.73
2023-05-19T05:38:36.551Z,61.87
2023-05-19T05:39:36.540Z,53.17
2023-05-19T05:40:36.541Z,50.92
2023-05-19T05:41:36.557Z,54.30
2023-05-19T05:42:36.517Z,52.37
2023-05-19T05:43:36.499Z,55.59
2023-05-19T05:44:36.491Z,53.17
2023-05-19T05:45:36.583Z,52.37
2023-05-19T05:46:36.533Z,50.60
2023-05-19T05:47:36.493Z,50.27
2023-05-19T05:48:36.476Z,50.27
2023-05-19T05:49:36.533Z,49.31
2023-05-19T05:50:36.466Z,49.95
2023-05-19T05:51:36.461Z,50.60
2023-05-19T05:52:36.473Z,49.63
2023-05-19T05:53:36.440Z,50.11
2023-05-19T05:54:36.443Z,49.95
2023-05-19T05:55:36.463Z,49.15
2023-05-19T05:56:36.410Z,49.31
2023-05-19T05:57:36.419Z,50.27
2023-05-19T05:58:37.374Z,49.47
2023-05-19T05:59:37.413Z,49.63
2023-05-19T06:00:36.602Z,50.11
2023-05-19T06:01:36.381Z,51.40
2023-05-19T06:02:36.423Z,51.56
2023-05-19T06:03:36.412Z,50.11
2023-05-19T06:04:36.385Z,49.47
2023-05-19T06:05:36.458Z,52.37
2023-05-19T06:06:36.369Z,49.31
2023-05-19T06:07:36.340Z,58.65
2023-05-19T06:08:36.378Z,48.82
2023-05-19T06:09:37.237Z,50.76
2023-05-19T06:10:36.541Z,48.98
2023-05-19T06:11:36.347Z,48.66
2023-05-19T06:12:36.303Z,48.98
2023-05-19T06:13:36.333Z,48.66
2023-05-19T06:14:36.295Z,49.15
2023-05-19T06:15:36.309Z,50.43
2023-05-19T06:16:36.331Z,50.27
2023-05-19T06:17:36.334Z,49.63
2023-05-19T06:18:36.330Z,50.76
2023-05-19T06:19:36.252Z,49.31
2023-05-19T06:20:36.373Z,50.43
2023-05-19T06:21:36.241Z,49.95
2023-05-19T06:22:36.301Z,51.88
2023-05-19T06:23:36.292Z,49.95
2023-05-19T06:24:38.698Z,49.79
2023-05-19T06:25:36.238Z,50.92
2023-05-19T06:26:36.222Z,49.15
2023-05-19T06:27:36.209Z,49.63
2023-05-19T06:28:36.203Z,49.79
2023-05-19T06:29:36.223Z,49.15
2023-05-19T06:30:36.203Z,50.27
2023-05-19T06:31:36.184Z,48.98
2023-05-19T06:32:36.207Z,49.63
2023-05-19T06:33:36.181Z,50.11
2023-05-19T06:34:36.181Z,48.98
2023-05-19T06:35:36.157Z,49.31
2023-05-19T06:36:36.162Z,49.63
2023-05-19T06:37:36.155Z,50.43
2023-05-19T06:38:36.116Z,49.15
2023-05-19T06:39:36.118Z,50.92
2023-05-19T06:40:36.163Z,54.79
2023-05-19T06:41:36.133Z,50.27
2023-05-19T06:42:36.141Z,50.43
2023-05-19T06:43:36.093Z,49.63
2023-05-19T06:44:36.088Z,49.31
2023-05-19T06:45:36.099Z,50.27
2023-05-19T06:46:36.128Z,50.11
2023-05-19T06:47:36.210Z,49.31
2023-05-19T06:48:36.059Z,49.15
2023-05-19T06:49:36.080Z,50.11
2023-05-19T06:50:36.049Z,49.79
2023-05-19T06:51:36.069Z,50.27
2023-05-19T06:52:36.022Z,66.06
2023-05-19T06:53:36.043Z,68.32
2023-05-19T06:54:36.044Z,56.07
2023-05-19T06:55:43.941Z,56.56
2023-05-19T06:56:38.051Z,61.39
2023-05-19T06:57:35.989Z,57.85
2023-05-19T06:58:35.985Z,61.07
2023-05-19T06:59:35.986Z,57.36
2023-05-19T07:00:36.266Z,65.90
2023-05-19T07:01:36.011Z,49.15
2023-05-19T07:02:36.025Z,49.63
2023-05-19T07:03:36.061Z,50.43
2023-05-19T07:04:35.936Z,54.95
2023-05-19T07:05:35.958Z,49.31
2023-05-19T07:06:35.933Z,48.66
2023-05-19T07:07:35.924Z,48.98
2023-05-19T07:08:35.920Z,52.21
2023-05-19T07:09:35.925Z,58.01
2023-05-19T07:10:35.910Z,49.31
2023-05-19T07:11:35.892Z,49.47
2023-05-19T07:12:35.874Z,50.11
2023-05-19T07:13:35.871Z,50.43
2023-05-19T07:14:35.888Z,49.63
2023-05-19T07:15:35.892Z,58.17
2023-05-19T07:16:35.896Z,49.31
2023-05-19T07:17:35.948Z,48.98
2023-05-19T07:18:35.858Z,51.72
2023-05-19T07:19:35.936Z,48.66
2023-05-19T07:20:35.830Z,54.30
2023-05-19T07:21:35.847Z,49.95
2023-05-19T07:22:35.857Z,48.02
2023-05-19T07:23:35.838Z,52.69
2023-05-19T07:24:35.827Z,49.31
2023-05-19T07:25:35.783Z,49.47
2023-05-19T07:26:35.784Z,48.50
2023-05-19T07:27:35.769Z,49.47
2023-05-19T07:28:35.811Z,50.76
2023-05-19T07:29:35.754Z,60.42
2023-05-19T07:30:35.793Z,48.98
2023-05-19T07:31:35.772Z,48.98
2023-05-19T07:32:35.768Z,49.79
2023-05-19T07:33:35.795Z,49.63
2023-05-19T07:34:35.739Z,49.47
2023-05-19T07:35:35.725Z,49.47
2023-05-19T07:36:35.710Z,49.31
2023-05-19T07:37:35.713Z,50.11
2023-05-19T07:38:35.737Z,49.79
2023-05-19T07:39:35.712Z,49.31
2023-05-19T07:40:35.689Z,49.79
2023-05-19T07:41:36.536Z,49.15
2023-05-19T07:42:36.692Z,51.08
2023-05-19T07:43:35.716Z,50.43
2023-05-19T07:44:35.655Z,50.27
2023-05-19T07:45:35.659Z,50.43
2023-05-19T07:46:35.732Z,50.76
2023-05-19T07:47:35.661Z,50.11
2023-05-19T07:48:35.619Z,50.60
2023-05-19T07:49:35.613Z,50.27
2023-05-19T07:50:35.646Z,50.43
2023-05-19T07:51:35.626Z,50.43
2023-05-19T07:52:35.598Z,50.27
2023-05-19T07:53:35.600Z,49.15
2023-05-19T07:54:35.585Z,49.31
2023-05-19T07:55:35.602Z,49.47
2023-05-19T07:56:35.792Z,48.98
2023-05-19T07:57:35.584Z,48.82
2023-05-19T07:58:35.547Z,49.79
2023-05-19T07:59:35.569Z,50.60
2023-05-19T08:00:35.635Z,48.82
2023-05-19T08:01:35.548Z,48.82
2023-05-19T08:02:35.609Z,48.98
2023-05-19T08:03:35.797Z,50.11
2023-05-19T08:04:35.640Z,50.60
2023-05-19T08:05:35.581Z,50.60
2023-05-19T08:06:35.507Z,48.82
2023-05-19T08:07:35.482Z,49.79
2023-05-19T08:08:35.481Z,49.47
2023-05-19T08:09:35.499Z,49.15
2023-05-19T08:10:35.733Z,49.47
2023-05-19T08:11:35.463Z,48.98
2023-05-19T08:12:35.519Z,48.66
2023-05-19T08:13:35.468Z,51.40
2023-05-19T08:14:35.441Z,49.31
2023-05-19T08:15:35.571Z,49.47
2023-05-19T08:16:35.424Z,49.15
2023-05-19T08:17:35.630Z,53.01
2023-05-19T08:18:35.417Z,48.66
2023-05-19T08:19:35.443Z,48.18
2023-05-19T08:20:35.580Z,50.43
2023-05-19T08:21:35.401Z,50.11
2023-05-19T08:22:35.406Z,49.15
2023-05-19T08:23:35.382Z,49.31
2023-05-19T08:24:35.439Z,48.66
2023-05-19T08:25:35.383Z,51.72
2023-05-19T08:26:37.621Z,49.63
2023-05-19T08:27:36.354Z,49.63
2023-05-19T08:28:35.340Z,47.86
2023-05-19T08:29:35.403Z,48.66
2023-05-19T08:30:35.388Z,48.82
2023-05-19T08:31:35.372Z,49.79
2023-05-19T08:32:35.343Z,49.47
2023-05-19T08:33:35.324Z,48.82
2023-05-19T08:34:35.328Z,49.79
2023-05-19T08:35:35.308Z,49.31
2023-05-19T08:36:35.296Z,48.18
2023-05-19T08:37:35.286Z,48.66
2023-05-19T08:38:35.310Z,48.50
2023-05-19T08:39:35.283Z,49.15
2023-05-19T08:40:35.358Z,48.34
2023-05-19T08:41:35.274Z,47.37
2023-05-19T08:42:35.249Z,47.70
2023-05-19T08:43:35.265Z,48.98
2023-05-19T08:44:35.257Z,49.31
2023-05-19T08:45:35.327Z,48.50
2023-05-19T08:46:35.249Z,48.34
2023-05-19T08:47:35.260Z,55.43
2023-05-19T08:48:35.226Z,49.31
2023-05-19T08:49:35.205Z,56.88
2023-05-19T08:50:35.319Z,48.34
2023-05-19T08:51:35.194Z,46.41
2023-05-19T08:52:35.203Z,47.05
2023-05-19T08:53:35.174Z,49.31
2023-05-19T08:54:35.176Z,55.91
2023-05-19T08:55:35.351Z,50.76
2023-05-19T08:56:35.154Z,45.60
2023-05-19T08:57:35.161Z,52.53
2023-05-19T08:58:35.130Z,51.08
2023-05-19T08:59:35.122Z,47.86
2023-05-19T09:00:35.503Z,48.82
2023-05-19T09:02:35.128Z,53.82
2023-05-19T09:03:35.156Z,48.34
2023-05-19T09:04:35.223Z,48.18
2023-05-19T09:05:35.378Z,48.50
2023-05-19T09:06:35.118Z,51.08
2023-05-19T09:07:35.082Z,47.21
2023-05-19T09:08:35.121Z,47.86
2023-05-19T09:09:35.069Z,47.53
2023-05-19T09:10:35.065Z,46.89
2023-05-19T09:11:35.071Z,46.89
2023-05-19T09:12:35.060Z,47.21
2023-05-19T09:13:35.036Z,48.82
2023-05-19T09:14:35.033Z,48.18
2023-05-19T09:15:35.269Z,47.86
2023-05-19T09:16:35.053Z,47.21
2023-05-19T09:17:35.038Z,49.95
2023-05-19T09:18:35.032Z,48.34
2023-05-19T09:19:35.079Z,47.05
2023-05-19T09:20:35.045Z,48.66
2023-05-19T09:21:34.982Z,57.04
2023-05-19T09:22:34.985Z,47.37
2023-05-19T09:23:34.948Z,46.73
2023-05-19T09:24:35.031Z,48.02
2023-05-19T09:25:36.066Z,47.21
2023-05-19T09:26:35.041Z,46.41
2023-05-19T09:27:34.962Z,47.53
2023-05-19T09:28:34.936Z,46.57
2023-05-19T09:29:34.981Z,46.25
2023-05-19T09:30:34.949Z,46.57
2023-05-19T09:31:34.966Z,47.21
2023-05-19T09:32:34.921Z,46.41
2023-05-19T09:33:34.964Z,46.08
2023-05-19T09:34:34.918Z,46.25
2023-05-19T09:35:35.221Z,46.41
2023-05-19T09:36:34.864Z,47.05
2023-05-19T09:37:34.865Z,46.08
2023-05-19T09:38:34.848Z,46.57
2023-05-19T09:39:34.944Z,46.73
2023-05-19T09:40:34.852Z,47.53
2023-05-19T09:41:34.829Z,47.70
2023-05-19T09:42:34.994Z,47.86
2023-05-19T09:43:34.957Z,50.76
2023-05-19T09:44:34.959Z,49.15
2023-05-19T09:45:35.056Z,47.05
2023-05-19T09:46:35.022Z,45.76
2023-05-19T09:47:34.833Z,45.60
2023-05-19T09:48:34.825Z,45.44
2023-05-19T09:49:34.810Z,45.28
2023-05-19T09:50:34.777Z,55.59
2023-05-19T09:51:34.770Z,46.89
2023-05-19T09:52:34.747Z,48.18
2023-05-19T09:53:34.792Z,46.57
2023-05-19T09:54:34.742Z,46.73
2023-05-19T09:55:35.092Z,46.08
2023-05-19T09:56:34.800Z,45.60
2023-05-19T09:57:34.755Z,48.50
2023-05-19T09:58:34.794Z,48.34
2023-05-19T09:59:34.704Z,48.82
2023-05-19T10:00:35.118Z,48.66
2023-05-19T10:01:34.749Z,47.86
2023-05-19T10:02:34.766Z,47.37
2023-05-19T10:03:34.813Z,49.31
2023-05-19T10:04:34.700Z,48.82
2023-05-19T10:05:35.237Z,48.18
2023-05-19T10:06:34.697Z,52.05
2023-05-19T10:07:34.666Z,50.27
2023-05-19T10:08:34.660Z,50.76
2023-05-19T10:09:34.638Z,50.11
2023-05-19T10:10:34.614Z,52.69
2023-05-19T10:11:34.621Z,52.85
2023-05-19T10:12:34.623Z,50.76
2023-05-19T10:13:34.611Z,50.76
2023-05-19T10:14:34.595Z,52.05
2023-05-19T10:15:40.884Z,50.76
2023-05-19T10:16:36.638Z,46.25
2023-05-19T10:17:34.623Z,46.08
2023-05-19T10:18:34.603Z,57.04
2023-05-19T10:19:34.683Z,46.57
2023-05-19T10:20:34.749Z,46.08
2023-05-19T10:21:34.554Z,59.78
2023-05-19T10:22:34.538Z,45.28
2023-05-19T10:23:34.569Z,46.08
2023-05-19T10:24:34.539Z,45.12
2023-05-19T10:25:34.778Z,46.08
2023-05-19T10:26:34.546Z,46.08
2023-05-19T10:27:34.522Z,46.41
2023-05-19T10:28:34.491Z,45.76
2023-05-19T10:29:34.493Z,49.95
2023-05-19T10:30:34.621Z,50.43
2023-05-19T10:31:34.531Z,47.37
2023-05-19T10:32:34.600Z,56.56
2023-05-19T10:33:34.457Z,45.60
2023-05-19T10:34:34.449Z,45.44
2023-05-19T10:35:34.661Z,47.70
2023-05-19T10:36:34.424Z,45.76
2023-05-19T10:37:34.433Z,45.12
2023-05-19T10:38:34.434Z,45.12
2023-05-19T10:39:34.412Z,44.63
2023-05-19T10:40:34.427Z,44.79
2023-05-19T10:41:34.411Z,44.63
2023-05-19T10:42:34.391Z,42.70
2023-05-19T10:43:34.401Z,43.02
2023-05-19T10:44:34.416Z,42.54
2023-05-19T10:45:34.733Z,43.99
2023-05-19T10:46:34.443Z,44.31
2023-05-19T10:47:34.375Z,42.70
2023-05-19T10:48:34.340Z,44.63
2023-05-19T10:49:34.368Z,45.28
2023-05-19T10:50:34.392Z,43.18
2023-05-19T10:51:34.333Z,44.96
2023-05-19T10:52:34.321Z,47.53
2023-05-19T10:53:34.310Z,43.18
2023-05-19T10:54:34.364Z,42.38
2023-05-19T10:55:34.456Z,41.89
2023-05-19T10:56:34.348Z,41.25
2023-05-19T10:57:34.321Z,39.96
2023-05-19T10:58:34.302Z,42.22
2023-05-19T10:59:34.320Z,42.70
2023-05-19T11:00:34.275Z,44.15
2023-05-19T11:01:34.315Z,43.02
2023-05-19T11:02:34.297Z,42.54
2023-05-19T11:03:34.296Z,47.21
2023-05-19T11:04:34.302Z,43.34
2023-05-19T11:05:34.489Z,43.51
2023-05-19T11:06:34.231Z,43.51
2023-05-19T11:07:34.232Z,44.15
2023-05-19T11:08:34.227Z,44.63
2023-05-19T11:09:39.987Z,56.07
2023-05-19T11:10:36.258Z,41.89
2023-05-19T11:11:34.888Z,42.70
2023-05-19T11:12:34.195Z,42.38
2023-05-19T11:13:34.201Z,43.02
2023-05-19T11:14:34.183Z,44.15
2023-05-19T11:15:34.387Z,43.99
2023-05-19T11:16:34.324Z,55.27
2023-05-19T11:17:35.070Z,45.12
2023-05-19T11:18:34.155Z,50.92
2023-05-19T11:19:34.138Z,49.47
2023-05-19T11:20:34.143Z,50.27
2023-05-19T11:21:34.254Z,50.92
2023-05-19T11:22:35.037Z,53.01
2023-05-19T11:23:35.505Z,50.27
2023-05-19T11:24:34.117Z,51.40
2023-05-19T11:25:34.177Z,48.50
2023-05-19T11:26:34.105Z,49.15
2023-05-19T11:27:34.100Z,48.98
2023-05-19T11:28:34.108Z,44.63
2023-05-19T11:29:34.914Z,44.96
2023-05-19T11:30:35.221Z,43.34
2023-05-19T11:31:34.200Z,42.86
2023-05-19T11:32:34.123Z,42.70
2023-05-19T11:33:34.031Z,43.67
2023-05-19T11:34:34.034Z,45.92
2023-05-19T11:35:36.005Z,44.15
2023-05-19T11:36:35.067Z,41.25
2023-05-19T11:37:34.013Z,42.06
2023-05-19T11:38:33.997Z,42.06
2023-05-19T11:39:34.020Z,41.73
2023-05-19T11:40:34.029Z,43.34
2023-05-19T11:41:33.997Z,43.18
2023-05-19T11:42:33.971Z,44.31
2023-05-19T11:43:34.982Z,45.12
2023-05-19T11:44:33.974Z,43.34
2023-05-19T11:45:34.142Z,45.76
2023-05-19T11:46:33.968Z,41.73
2023-05-19T11:47:42.016Z,42.22
2023-05-19T11:48:36.093Z,57.04
2023-05-19T11:49:33.985Z,43.99
2023-05-19T11:50:33.979Z,44.47
2023-05-19T11:51:33.930Z,44.96
2023-05-19T11:52:33.906Z,53.01
2023-05-19T11:53:35.244Z,44.79
2023-05-19T11:54:34.930Z,44.31
2023-05-19T11:55:34.027Z,44.47
2023-05-19T11:56:33.921Z,43.34
2023-05-19T11:57:33.874Z,41.41
2023-05-19T11:58:33.867Z,41.41
2023-05-19T11:59:35.854Z,43.34
2023-05-19T12:00:34.868Z,43.67
2023-05-19T12:01:33.838Z,45.76
2023-05-19T12:02:33.947Z,44.15
2023-05-19T12:03:33.915Z,43.83
2023-05-19T12:04:33.876Z,42.86
2023-05-19T12:05:39.958Z,45.12
2023-05-19T12:06:36.030Z,43.67
2023-05-19T12:07:33.798Z,42.70
2023-05-19T12:08:33.800Z,44.15
2023-05-19T12:09:33.809Z,43.18
2023-05-19T12:10:33.814Z,44.63
2023-05-19T12:11:33.817Z,43.51
2023-05-19T12:12:33.759Z,44.96
2023-05-19T12:13:34.802Z,45.60
2023-05-19T12:14:33.885Z,45.92
2023-05-19T12:15:34.082Z,54.79
2023-05-19T12:16:33.771Z,46.57
2023-05-19T12:17:33.763Z,43.18
2023-05-19T12:18:33.753Z,41.73
2023-05-19T12:19:33.706Z,45.12
2023-05-19T12:20:33.893Z,41.89
2023-05-19T12:21:34.456Z,42.38
2023-05-19T12:22:33.685Z,47.05
2023-05-19T12:23:33.705Z,50.76
2023-05-19T12:24:33.675Z,44.96
2023-05-19T12:25:33.884Z,44.96
2023-05-19T12:26:33.655Z,45.44
2023-05-19T12:27:56.040Z,44.47
2023-05-19T12:28:34.650Z,45.28
2023-05-19T12:29:33.656Z,46.57
2023-05-19T12:30:34.737Z,45.44
2023-05-19T12:31:33.703Z,46.08
2023-05-19T12:32:33.650Z,46.73
2023-05-19T12:33:34.910Z,73.48
2023-05-19T12:34:33.609Z,57.20
2023-05-19T12:35:33.669Z,44.96
2023-05-19T12:36:33.623Z,43.51
2023-05-19T12:37:33.750Z,44.63
2023-05-19T12:38:33.590Z,47.21
2023-05-19T12:39:33.569Z,45.60
2023-05-19T12:40:33.959Z,45.28
2023-05-19T12:41:33.630Z,47.86
2023-05-19T12:42:33.565Z,48.98
2023-05-19T12:43:33.561Z,43.83
2023-05-19T12:44:33.579Z,43.51
2023-05-19T12:45:33.580Z,42.86
2023-05-19T12:46:33.590Z,42.86
2023-05-19T12:47:33.563Z,47.21
2023-05-19T12:48:33.529Z,43.99
2023-05-19T12:49:33.509Z,41.09
2023-05-19T12:50:33.683Z,44.31
2023-05-19T12:51:33.517Z,40.77
2023-05-19T12:52:33.503Z,42.86
2023-05-19T12:53:33.562Z,41.41